createdAt,value
2018-02-02T00:00:05.971Z,97914.98
2018-02-02T00:02:34.272Z,97911.78
2018-02-02T00:05:02.518Z,97903.28
2018-02-02T00:07:30.806Z,97869.17
2018-02-02T00:09:59.086Z,97903.80
2018-02-02T00:12:27.353Z,97898.10
2018-02-02T00:14:56.006Z,97902.91
2018-02-02T00:17:24.312Z,97908.31
2018-02-02T00:19:52.595Z,97899.45
2018-02-02T00:22:20.882Z,97905.30
2018-02-02T00:24:49.719Z,97898.17
2018-02-02T00:27:17.995Z,97898.67
2018-02-02T00:29:46.304Z,97906.21
2018-02-02T00:32:14.585Z,97904.73
2018-02-02T00:34:42.872Z,97900.19
2018-02-02T00:37:11.167Z,97901.73
2018-02-02T00:39:39.510Z,97895.69
2018-02-02T00:42:07.762Z,97902.33
2018-02-02T00:44:36.101Z,97901.80
2018-02-02T00:47:05.183Z,97901.66
2018-02-02T00:49:33.596Z,97907.83
2018-02-02T00:52:01.911Z,97900.20
2018-02-02T00:54:30.187Z,97896.95
2018-02-02T00:56:58.480Z,97905.63
2018-02-02T00:59:26.760Z,97919.14
2018-02-02T01:01:55.039Z,97899.20
2018-02-02T01:04:24.120Z,97895.10
2018-02-02T01:06:52.395Z,97891.29
2018-02-02T01:09:20.679Z,97872.92
2018-02-02T01:11:48.945Z,97892.25
2018-02-02T01:14:17.242Z,97893.74
2018-02-02T01:16:45.520Z,97895.77
2018-02-02T01:19:13.844Z,97896.45
2018-02-02T01:21:42.126Z,97904.08
2018-02-02T01:24:10.424Z,97902.90
2018-02-02T01:26:38.702Z,97904.42
2018-02-02T01:29:06.986Z,97910.20
2018-02-02T01:31:35.277Z,97910.87
2018-02-02T01:34:03.550Z,97907.28
2018-02-02T01:36:31.823Z,97911.91
2018-02-02T01:39:00.091Z,97909.33
2018-02-02T01:41:28.406Z,97907.74
2018-02-02T01:43:56.667Z,97909.40
2018-02-02T01:46:24.933Z,97910.34
2018-02-02T01:48:53.215Z,97909.34
2018-02-02T01:51:21.475Z,97914.11
2018-02-02T01:53:49.764Z,97910.88
2018-02-02T01:56:18.130Z,97894.67
2018-02-02T01:58:46.378Z,97899.34
2018-02-02T02:01:14.661Z,97902.28
2018-02-02T02:03:42.986Z,97899.66
2018-02-02T02:06:11.246Z,97899.94
2018-02-02T02:08:39.528Z,97882.05
2018-02-02T02:11:07.852Z,97902.28
2018-02-02T02:13:36.153Z,97902.81
2018-02-02T02:16:04.454Z,97898.33
2018-02-02T02:18:32.709Z,97900.31
2018-02-02T02:21:00.983Z,97905.41
2018-02-02T02:23:29.260Z,97903.28
2018-02-02T02:25:57.547Z,97896.02
2018-02-02T02:28:25.816Z,97904.23
2018-02-02T02:30:54.168Z,97896.53
2018-02-02T02:33:22.430Z,97894.48
2018-02-02T02:35:50.690Z,97895.06
2018-02-02T02:38:18.995Z,97890.44
2018-02-02T02:40:47.250Z,97888.36
2018-02-02T02:43:15.548Z,97890.33
2018-02-02T02:45:43.820Z,97894.14
2018-02-02T02:48:12.118Z,97895.67
2018-02-02T02:50:40.395Z,97896.00
2018-02-02T02:53:08.988Z,97889.92
2018-02-02T02:55:37.263Z,97886.73
2018-02-02T02:58:05.539Z,97888.41
2018-02-02T03:00:33.828Z,97892.40
2018-02-02T03:03:02.591Z,97887.15
2018-02-02T03:05:30.880Z,97889.63
2018-02-02T03:07:59.156Z,97886.08
2018-02-02T03:10:27.443Z,97887.16
2018-02-02T03:12:55.707Z,97887.57
2018-02-02T03:15:23.998Z,97884.13
2018-02-02T03:17:52.423Z,97880.14
2018-02-02T03:20:20.729Z,97884.30
2018-02-02T03:22:49.029Z,97884.11
2018-02-02T03:25:17.302Z,97890.94
2018-02-02T03:27:45.579Z,97885.09
2018-02-02T03:30:13.853Z,97879.72
2018-02-02T03:32:42.134Z,97879.73
2018-02-02T03:35:10.392Z,97875.43
2018-02-02T03:37:38.680Z,97879.16
2018-02-02T03:40:06.973Z,97882.90
2018-02-02T03:42:35.298Z,97888.44
2018-02-02T03:45:03.614Z,97883.39
2018-02-02T03:47:31.891Z,97887.23
2018-02-02T03:50:00.492Z,97881.92
2018-02-02T03:52:28.758Z,97883.79
2018-02-02T03:54:57.011Z,97877.85
2018-02-02T03:57:25.290Z,97889.44
2018-02-02T03:59:53.554Z,97885.00
2018-02-02T04:02:21.844Z,97883.50
2018-02-02T04:04:50.127Z,97878.93
2018-02-02T04:07:18.395Z,97879.03
2018-02-02T04:09:46.662Z,97880.61
2018-02-02T04:12:15.927Z,97883.60
2018-02-02T04:14:44.222Z,97882.11
2018-02-02T04:17:12.536Z,97885.38
2018-02-02T04:19:40.819Z,97887.63
2018-02-02T04:22:09.092Z,97893.17
2018-02-02T04:24:37.369Z,97886.61
2018-02-02T04:27:05.618Z,97887.95
2018-02-02T04:29:33.931Z,97888.70
2018-02-02T04:32:02.198Z,97884.46
2018-02-02T04:34:30.488Z,97874.70
2018-02-02T04:36:58.803Z,97882.05
2018-02-02T04:39:27.068Z,97878.32
2018-02-02T04:41:55.377Z,97876.83
2018-02-02T04:44:23.654Z,97881.91
2018-02-02T04:46:51.989Z,97879.48
2018-02-02T04:49:20.242Z,97890.42
2018-02-02T04:51:48.554Z,97886.22
2018-02-02T04:54:16.864Z,97886.84
2018-02-02T04:56:45.128Z,97889.47
2018-02-02T04:59:13.425Z,97877.08
2018-02-02T05:01:41.691Z,97879.99
2018-02-02T05:04:09.989Z,97873.95
2018-02-02T05:06:38.590Z,97876.20
2018-02-02T05:09:06.845Z,97875.20
2018-02-02T05:11:35.117Z,97879.09
2018-02-02T05:14:03.403Z,97876.78
2018-02-02T05:16:31.656Z,97877.73
2018-02-02T05:18:59.939Z,97869.56
2018-02-02T05:21:28.226Z,97877.46
2018-02-02T05:23:56.491Z,97874.22
2018-02-02T05:26:24.786Z,97888.92
2018-02-02T05:28:53.042Z,97887.27
2018-02-02T05:31:21.347Z,97881.75
2018-02-02T05:33:49.602Z,97883.59
2018-02-02T05:36:17.890Z,97867.72
2018-02-02T05:38:46.202Z,97870.77
2018-02-02T05:41:14.527Z,97871.13
2018-02-02T05:43:43.100Z,97872.47
2018-02-02T05:46:11.374Z,97870.31
2018-02-02T05:48:39.657Z,97865.34
2018-02-02T05:51:07.944Z,97866.65
2018-02-02T05:53:36.238Z,97863.27
2018-02-02T05:56:05.260Z,97855.66
2018-02-02T05:58:33.577Z,97862.84
2018-02-02T06:01:01.822Z,97861.34
2018-02-02T06:03:30.159Z,97861.14
2018-02-02T06:05:58.486Z,97861.47
2018-02-02T06:08:26.810Z,97850.05
2018-02-02T06:10:55.134Z,97852.05
2018-02-02T06:13:23.449Z,97844.02
2018-02-02T06:15:51.753Z,97850.98
2018-02-02T06:18:20.067Z,97850.00
2018-02-02T06:20:48.376Z,97842.42
2018-02-02T06:23:16.651Z,97846.69
2018-02-02T06:25:44.930Z,97845.59
2018-02-02T06:28:13.767Z,97839.66
2018-02-02T06:30:42.008Z,97840.98
2018-02-02T06:33:10.295Z,97842.38
2018-02-02T06:35:38.602Z,97850.75
2018-02-02T06:38:06.908Z,97846.92
2018-02-02T06:40:35.247Z,97845.89
2018-02-02T06:43:03.509Z,97851.17
2018-02-02T06:45:31.765Z,97852.53
2018-02-02T06:48:00.059Z,97853.73
2018-02-02T06:50:28.343Z,97853.16
2018-02-02T06:52:56.599Z,97856.70
2018-02-02T06:55:24.896Z,97846.66
2018-02-02T06:57:54.301Z,97859.14
2018-02-02T07:00:22.545Z,97864.97
2018-02-02T07:02:50.815Z,97864.31
2018-02-02T07:05:19.184Z,97864.06
2018-02-02T07:07:47.977Z,97862.35
2018-02-02T07:10:16.346Z,97863.03
2018-02-02T07:12:44.628Z,97872.97
2018-02-02T07:15:12.899Z,97855.81
2018-02-02T07:17:41.227Z,97856.35
2018-02-02T07:20:09.466Z,97859.50
2018-02-02T07:22:38.767Z,97864.53
2018-02-02T07:25:07.049Z,97861.39
2018-02-02T07:27:35.750Z,97863.55
2018-02-02T07:30:04.830Z,97844.95
2018-02-02T07:32:33.091Z,97859.83
2018-02-02T07:35:02.281Z,97870.22
2018-02-02T07:37:30.560Z,97869.33
2018-02-02T07:39:58.869Z,97860.63
2018-02-02T07:42:27.658Z,97874.11
2018-02-02T07:44:55.925Z,97878.37
2018-02-02T07:47:24.194Z,97873.70
2018-02-02T07:49:52.858Z,97872.92
2018-02-02T07:52:21.147Z,97872.19
2018-02-02T07:54:49.468Z,97876.52
2018-02-02T07:57:17.779Z,97869.89
2018-02-02T07:59:46.046Z,97876.63
2018-02-02T08:02:15.649Z,97875.76
2018-02-02T08:04:43.948Z,97882.31
2018-02-02T08:07:12.317Z,97882.95
2018-02-02T08:09:41.275Z,97882.87
2018-02-02T08:12:09.603Z,97878.32
2018-02-02T08:14:37.931Z,97877.93
2018-02-02T08:17:06.241Z,97877.67
2018-02-02T08:19:34.539Z,97886.48
2018-02-02T08:22:02.809Z,97887.94
2018-02-02T08:24:31.117Z,97891.63
2018-02-02T08:26:59.418Z,97899.50
2018-02-02T08:29:27.740Z,97896.69
2018-02-02T08:31:56.892Z,97894.77
2018-02-02T08:34:25.515Z,97896.92
2018-02-02T08:36:53.780Z,97897.20
2018-02-02T08:39:22.280Z,97896.66
2018-02-02T08:41:50.683Z,97900.37
2018-02-02T08:44:18.940Z,97900.28
2018-02-02T08:46:47.310Z,97897.33
2018-02-02T08:49:15.587Z,97894.78
2018-02-02T08:51:43.954Z,97905.18
2018-02-02T08:54:12.207Z,97901.62
2018-02-02T08:56:40.501Z,97895.28
2018-02-02T08:59:08.776Z,97904.30
2018-02-02T09:01:42.889Z,97909.12
2018-02-02T09:04:11.180Z,97905.46
2018-02-02T09:06:39.454Z,97907.42
2018-02-02T09:09:07.743Z,97913.21
2018-02-02T09:11:36.071Z,97912.73
2018-02-02T09:14:05.347Z,97913.80
2018-02-02T09:16:33.626Z,97897.50
2018-02-02T09:19:01.983Z,97900.91
2018-02-02T09:21:30.237Z,97897.25
2018-02-02T09:23:58.520Z,97883.80
2018-02-02T09:26:26.796Z,97890.76
2018-02-02T09:28:55.126Z,97915.72
2018-02-02T09:31:23.888Z,97909.17
2018-02-02T09:33:52.239Z,97902.28
2018-02-02T09:36:20.519Z,97906.47
2018-02-02T09:38:48.811Z,97910.43
2018-02-02T09:41:17.091Z,97920.59
2018-02-02T09:43:45.368Z,97923.48
2018-02-02T09:46:13.661Z,97922.55
2018-02-02T09:48:42.110Z,97926.81
2018-02-02T09:51:10.511Z,97926.06
2018-02-02T09:53:38.843Z,97944.13
2018-02-02T09:56:07.936Z,97926.36
2018-02-02T09:58:36.743Z,97926.20
2018-02-02T10:01:05.003Z,97927.98
2018-02-02T10:03:33.399Z,97945.84
2018-02-02T10:06:02.595Z,97928.08
2018-02-02T10:08:30.863Z,97944.30
2018-02-02T10:10:59.129Z,97933.20
2018-02-02T10:13:27.495Z,97938.67
2018-02-02T10:15:55.786Z,97937.16
2018-02-02T10:18:24.171Z,97932.72
2018-02-02T10:20:52.550Z,97939.30
2018-02-02T10:23:21.079Z,97951.07
2018-02-02T10:25:50.355Z,97940.11
2018-02-02T10:28:18.622Z,97941.64
2018-02-02T10:30:46.930Z,97940.11
2018-02-02T10:33:15.275Z,97938.41
2018-02-02T10:35:43.635Z,97929.70
2018-02-02T10:38:12.455Z,97934.46
2018-02-02T10:40:40.739Z,97938.62
2018-02-02T10:43:09.095Z,97939.13
2018-02-02T10:45:37.382Z,97930.77
2018-02-02T10:48:05.757Z,97942.21
2018-02-02T10:50:34.020Z,97948.38
2018-02-02T10:53:02.302Z,97932.77
2018-02-02T10:55:30.574Z,97947.31
2018-02-02T10:57:58.938Z,97936.91
2018-02-02T11:00:28.457Z,97929.68
2018-02-02T11:03:02.257Z,97924.41
2018-02-02T11:05:30.539Z,97928.70
2018-02-02T11:07:58.852Z,97915.43
2018-02-02T11:10:27.119Z,97919.64
2018-02-02T11:12:55.410Z,97915.83
2018-02-02T11:15:23.744Z,97917.78
2018-02-02T11:17:52.047Z,97917.44
2018-02-02T11:20:21.148Z,97906.87
2018-02-02T11:22:49.409Z,97908.71
2018-02-02T11:25:17.707Z,97910.69
2018-02-02T11:27:45.967Z,97906.57
2018-02-02T11:30:14.303Z,97902.68
2018-02-02T11:32:42.584Z,97897.09
2018-02-02T11:35:10.933Z,97894.91
2018-02-02T11:37:39.239Z,97902.70
2018-02-02T11:40:07.581Z,97884.61
2018-02-02T11:42:35.891Z,97894.69
2018-02-02T11:45:04.806Z,97885.03
2018-02-02T11:47:33.174Z,97892.09
2018-02-02T11:50:01.505Z,97887.25
2018-02-02T11:52:29.773Z,97884.16
2018-02-02T11:54:58.015Z,97867.23
2018-02-02T11:57:26.296Z,97857.02
2018-02-02T11:59:54.647Z,97870.77
2018-02-02T12:02:23.039Z,97868.47
2018-02-02T12:04:51.336Z,97878.46
2018-02-02T12:07:20.600Z,97872.68
2018-02-02T12:09:50.278Z,97866.00
2018-02-02T12:12:18.602Z,97861.20
2018-02-02T12:14:46.883Z,97875.70
2018-02-02T12:17:16.078Z,97873.89
2018-02-02T12:19:44.337Z,97867.25
2018-02-02T12:22:16.172Z,97878.12
2018-02-02T12:27:48.245Z,97872.97
2018-02-02T12:33:26.304Z,97857.41
2018-02-02T12:36:01.982Z,97877.84
2018-02-02T12:38:30.309Z,97863.05
2018-02-02T12:40:58.642Z,97869.74
2018-02-02T12:43:26.909Z,97872.65
2018-02-02T12:45:55.183Z,97866.77
2018-02-02T12:48:35.400Z,97850.41
2018-02-02T12:51:03.670Z,97858.56
2018-02-02T12:53:32.005Z,97866.04
2018-02-02T12:56:01.315Z,97865.66
2018-02-02T12:58:29.594Z,97872.47
2018-02-02T13:00:57.936Z,97866.89
2018-02-02T13:03:26.457Z,97875.59
2018-02-02T13:05:54.806Z,97875.87
2018-02-02T13:08:23.168Z,97877.73
2018-02-02T13:10:51.475Z,97872.63
2018-02-02T13:13:19.814Z,97877.97
2018-02-02T13:15:48.114Z,97874.17
2018-02-02T13:18:16.396Z,97867.64
2018-02-02T13:20:44.771Z,97868.62
2018-02-02T13:23:13.064Z,97860.15
2018-02-02T13:25:42.143Z,97880.91
2018-02-02T13:28:10.468Z,97873.70
2018-02-02T13:30:38.810Z,97876.37
2018-02-02T13:33:07.126Z,97876.88
2018-02-02T13:35:35.486Z,97866.39
2018-02-02T13:38:03.839Z,97876.11
2018-02-02T13:40:32.096Z,97871.89
2018-02-02T13:43:00.400Z,97882.58
2018-02-02T13:45:28.745Z,97879.34
2018-02-02T13:47:57.114Z,97885.50
2018-02-02T13:50:26.112Z,97871.34
2018-02-02T13:52:54.382Z,97889.58
2018-02-02T13:55:22.662Z,97881.02
2018-02-02T13:57:50.952Z,97886.66
2018-02-02T14:00:19.259Z,97864.77
2018-02-02T14:02:47.509Z,97888.78
2018-02-02T14:05:15.812Z,97869.25
2018-02-02T14:07:44.095Z,97883.17
2018-02-02T14:10:12.420Z,97888.94
2018-02-02T14:12:40.768Z,97883.41
2018-02-02T14:15:09.015Z,97889.47
2018-02-02T14:17:37.370Z,97892.75
2018-02-02T14:20:05.624Z,97896.94
2018-02-02T14:22:34.020Z,97894.58
2018-02-02T14:25:02.334Z,97898.36
2018-02-02T14:27:30.649Z,97899.22
2018-02-02T14:29:58.925Z,97886.38
2018-02-02T14:32:27.246Z,97904.76
2018-02-02T14:34:55.507Z,97898.21
2018-02-02T14:37:23.788Z,97907.58
2018-02-02T14:39:52.133Z,97914.02
2018-02-02T14:42:21.597Z,97915.58
2018-02-02T14:44:49.913Z,97901.36
2018-02-02T14:47:18.200Z,97910.43
2018-02-02T14:49:46.491Z,97923.31
2018-02-02T14:52:14.756Z,97925.45
2018-02-02T14:54:43.111Z,97929.52
2018-02-02T14:57:11.397Z,97927.20
2018-02-02T14:59:39.730Z,97928.50
2018-02-02T15:02:08.016Z,97932.98
2018-02-02T15:04:36.311Z,97922.78
2018-02-02T15:07:04.649Z,97910.70
2018-02-02T15:09:32.946Z,97925.92
2018-02-02T15:12:01.243Z,97922.92
2018-02-02T15:14:29.858Z,97931.17
2018-02-02T15:16:58.169Z,97929.73
2018-02-02T15:19:26.434Z,97929.81
2018-02-02T15:21:54.722Z,97945.54
2018-02-02T15:24:23.000Z,97937.02
2018-02-02T15:26:51.380Z,97940.56
2018-02-02T15:29:19.812Z,97939.12
2018-02-02T15:31:48.162Z,97939.27
2018-02-02T15:34:16.432Z,97925.23
2018-02-02T15:36:44.787Z,97950.29
2018-02-02T15:39:13.091Z,97951.66
2018-02-02T15:41:41.352Z,97946.14
2018-02-02T15:44:09.643Z,97948.92
2018-02-02T15:46:37.916Z,97939.78
2018-02-02T15:49:06.243Z,97947.12
2018-02-02T15:51:34.479Z,97953.92
2018-02-02T15:54:02.890Z,97952.68
2018-02-02T15:56:31.181Z,97944.50
2018-02-02T15:58:59.584Z,97945.30
2018-02-02T16:01:27.875Z,97946.11
2018-02-02T16:03:56.136Z,97948.73
2018-02-02T16:06:24.446Z,97954.00
2018-02-02T16:08:52.733Z,97952.46
2018-02-02T16:11:20.998Z,97939.23
2018-02-02T16:13:49.265Z,97956.79
2018-02-02T16:16:17.591Z,97950.33
2018-02-02T16:18:45.866Z,97959.98
2018-02-02T16:21:14.465Z,97962.91
2018-02-02T16:23:44.784Z,97958.37
2018-02-02T16:26:13.084Z,97953.08
2018-02-02T16:28:41.351Z,97948.88
2018-02-02T16:31:09.610Z,97953.14
2018-02-02T16:33:37.903Z,97960.83
2018-02-02T16:36:06.307Z,97955.77
2018-02-02T16:38:34.579Z,97956.03
2018-02-02T16:41:03.394Z,97954.72
2018-02-02T16:43:32.604Z,97962.10
2018-02-02T16:46:01.442Z,97969.92
2018-02-02T16:48:29.776Z,97970.78
2018-02-02T16:50:58.044Z,97965.89
2018-02-02T16:53:26.370Z,97966.78
2018-02-02T16:55:54.643Z,97967.90
2018-02-02T16:58:22.949Z,97971.77
2018-02-02T17:00:51.240Z,97970.00
2018-02-02T17:03:19.578Z,97975.80
2018-02-02T17:05:47.799Z,97981.41
2018-02-02T17:08:16.159Z,97987.79
2018-02-02T17:10:44.427Z,97990.36
2018-02-02T17:13:12.872Z,97984.41
2018-02-02T17:15:41.123Z,97985.83
2018-02-02T17:18:09.411Z,97983.79
2018-02-02T17:20:37.729Z,97987.72
2018-02-02T17:23:06.044Z,97987.41
2018-02-02T17:25:34.364Z,97990.47
2018-02-02T17:28:02.620Z,97988.41
2018-02-02T17:30:31.885Z,97991.03
2018-02-02T17:33:00.132Z,97990.41
2018-02-02T17:35:28.444Z,97999.70
2018-02-02T17:37:56.747Z,97994.36
2018-02-02T17:40:25.013Z,98006.01
2018-02-02T17:42:53.952Z,98011.20
2018-02-02T17:45:22.240Z,98006.34
2018-02-02T17:47:50.612Z,98008.41
2018-02-02T17:50:18.903Z,98010.27
2018-02-02T17:52:47.162Z,98010.98
2018-02-02T17:55:15.484Z,98009.52
2018-02-02T17:57:43.772Z,98005.63
2018-02-02T18:00:15.627Z,98006.87
2018-02-02T18:02:44.270Z,97995.89
2018-02-02T18:05:12.609Z,98012.63
2018-02-02T18:07:40.920Z,98010.24
2018-02-02T18:10:09.199Z,98005.67
2018-02-02T18:12:37.706Z,98001.88
2018-02-02T18:15:05.939Z,98007.72
2018-02-02T18:17:34.231Z,97989.84
2018-02-02T18:20:02.508Z,98003.69
2018-02-02T18:22:30.802Z,97998.64
2018-02-02T18:24:59.083Z,98006.13
2018-02-02T18:27:27.381Z,98005.98
2018-02-02T18:29:55.640Z,98007.05
2018-02-02T18:32:23.923Z,98005.23
2018-02-02T18:34:52.190Z,98006.61
2018-02-02T18:37:20.467Z,98009.67
2018-02-02T18:39:48.748Z,98005.77
2018-02-02T18:42:17.020Z,98007.38
2018-02-02T18:44:45.316Z,98000.19
2018-02-02T18:47:13.578Z,98007.63
2018-02-02T18:49:41.864Z,98015.33
2018-02-02T18:52:10.185Z,98020.09
2018-02-02T18:54:38.474Z,98007.75
2018-02-02T18:57:06.745Z,98023.84
2018-02-02T18:59:35.050Z,98029.94
2018-02-02T19:02:03.294Z,98036.27
2018-02-02T19:04:31.602Z,98040.58
2018-02-02T19:06:59.884Z,98041.20
2018-02-02T19:09:28.171Z,98045.02
2018-02-02T19:11:56.468Z,98046.77
2018-02-02T19:14:24.743Z,98055.67
2018-02-02T19:16:53.090Z,98050.04
2018-02-02T19:19:21.402Z,98054.18
2018-02-02T19:21:49.677Z,98050.39
2018-02-02T19:24:17.978Z,98053.88
2018-02-02T19:26:46.256Z,98057.13
2018-02-02T19:29:14.574Z,98058.45
2018-02-02T19:31:42.844Z,98053.17
2018-02-02T19:34:11.146Z,98061.59
2018-02-02T19:36:40.316Z,98063.45
2018-02-02T19:39:08.647Z,98068.18
2018-02-02T19:41:36.917Z,98070.68
2018-02-02T19:44:05.427Z,98070.14
2018-02-02T19:46:33.841Z,98068.88
2018-02-02T19:49:02.114Z,98077.38
2018-02-02T19:51:30.403Z,98073.54
2018-02-02T19:53:58.675Z,98057.19
2018-02-02T19:56:27.011Z,98073.14
2018-02-02T19:58:55.255Z,98074.13
2018-02-02T20:01:23.613Z,98070.88
2018-02-02T20:03:51.879Z,98073.23
2018-02-02T20:06:20.147Z,98075.78
2018-02-02T20:08:48.439Z,98071.19
2018-02-02T20:11:16.704Z,98075.32
2018-02-02T20:13:45.053Z,98071.03
2018-02-02T20:16:13.325Z,98076.55
2018-02-02T20:18:41.678Z,98086.64
2018-02-02T20:21:09.957Z,98077.00
2018-02-02T20:23:38.246Z,98087.67
2018-02-02T20:26:06.498Z,98092.81
2018-02-02T20:28:34.835Z,98089.42
2018-02-02T20:31:03.220Z,98089.64
2018-02-02T20:33:31.499Z,98092.06
2018-02-02T20:35:59.779Z,98094.05
2018-02-02T20:38:28.041Z,98087.10
2018-02-02T20:40:56.323Z,98091.80
2018-02-02T20:43:24.720Z,98095.28
2018-02-02T20:45:52.955Z,98096.83
2018-02-02T20:48:21.254Z,98107.55
2018-02-02T20:50:49.602Z,98101.22
2018-02-02T20:53:17.894Z,98095.98
2018-02-02T20:55:46.185Z,98100.29
2018-02-02T20:58:14.464Z,98097.34
2018-02-02T21:00:42.778Z,98101.49
2018-02-02T21:03:11.142Z,98093.24
2018-02-02T21:05:39.419Z,98100.16
2018-02-02T21:08:07.732Z,98097.42
2018-02-02T21:10:36.008Z,98100.27
2018-02-02T21:13:04.847Z,98098.91
2018-02-02T21:15:33.139Z,98101.01
2018-02-02T21:18:01.406Z,98103.88
2018-02-02T21:20:29.696Z,98108.81
2018-02-02T21:22:57.984Z,98110.17
2018-02-02T21:25:26.594Z,98110.12
2018-02-02T21:27:54.863Z,98107.75
2018-02-02T21:30:23.879Z,98107.97
2018-02-02T21:32:52.138Z,98114.38
2018-02-02T21:35:20.473Z,98111.59
2018-02-02T21:37:48.830Z,98104.57
2018-02-02T21:40:17.116Z,98109.48
2018-02-02T21:42:45.443Z,98110.91
2018-02-02T21:45:13.716Z,98116.03
2018-02-02T21:47:42.045Z,98109.38
2018-02-02T21:50:10.312Z,98096.75
2018-02-02T21:52:38.582Z,98110.83
2018-02-02T21:55:06.889Z,98113.22
2018-02-02T21:57:35.161Z,98115.04
2018-02-02T22:00:04.380Z,98067.02
2018-02-02T22:02:32.667Z,98112.00
2018-02-02T22:05:00.984Z,98112.14
2018-02-02T22:07:29.221Z,98112.37
2018-02-02T22:09:57.498Z,98112.11
2018-02-02T22:12:25.793Z,98102.66
2018-02-02T22:14:54.046Z,98105.05
2018-02-02T22:17:22.340Z,98105.20
2018-02-02T22:19:50.632Z,98105.40
2018-02-02T22:22:18.921Z,98105.40
2018-02-02T22:24:47.255Z,98109.55
2018-02-02T22:27:15.545Z,98114.67
2018-02-02T22:29:43.842Z,98119.48
2018-02-02T22:32:12.095Z,98124.14
2018-02-02T22:34:40.388Z,98124.47
2018-02-02T22:37:08.635Z,98121.72
2018-02-02T22:39:36.930Z,98120.77
2018-02-02T22:42:05.232Z,98125.15
2018-02-02T22:44:33.498Z,98126.16
2018-02-02T22:47:01.791Z,98129.59
2018-02-02T22:49:30.044Z,98123.81
2018-02-02T22:51:58.338Z,98135.14
2018-02-02T22:54:26.600Z,98125.87
2018-02-02T22:56:54.892Z,98126.31
2018-02-02T22:59:23.162Z,98126.20
2018-02-02T23:01:51.435Z,98134.31
2018-02-02T23:04:19.710Z,98127.56
2018-02-02T23:06:47.983Z,98132.03
2018-02-02T23:09:16.258Z,98137.41
2018-02-02T23:11:44.534Z,98137.41
2018-02-02T23:14:13.015Z,98137.98
2018-02-02T23:16:41.290Z,98141.80
2018-02-02T23:19:09.562Z,98134.83
2018-02-02T23:21:37.847Z,98140.83
2018-02-02T23:24:06.121Z,98136.79
2018-02-02T23:26:34.451Z,98137.11
2018-02-02T23:29:02.673Z,98134.47
2018-02-02T23:31:30.959Z,98140.60
2018-02-02T23:33:59.231Z,98129.23
2018-02-02T23:36:27.499Z,98137.62
2018-02-02T23:38:55.806Z,98134.65
2018-02-02T23:41:24.103Z,98130.07
2018-02-02T23:43:52.383Z,98137.34
2018-02-02T23:46:20.670Z,98133.66
2018-02-02T23:48:49.000Z,98127.84
2018-02-02T23:51:17.309Z,98132.61
2018-02-02T23:53:45.565Z,98133.87
2018-02-02T23:56:13.825Z,98127.36
2018-02-02T23:58:43.160Z,98123.62
